Fouts Springs, California
Current Conditions -  °F | °C
As of 10:56 AM on Tuesday 21 Oct 2014 (Local Time) from KUKI Reporting Station
Clear Clear  
Wind Chill: 58°   Ceiling: Unl
Heat Index: 58°   Visibility: 10mi
Dew Point: 47°   Wind: 0mph
Humidity: 67%   Direction: NA
Pressure: 30.13"   Gusts: NA
Location:  39.3318°N, 122.533°W
Report Text: KUKI 211756Z AUTO 00000KT 10SM CLR 14/08 A3013 RMK AO2 SLP200 T01440083 10144 20078 50001
Loading
Personal Weather Stations






























Interactive Weather Map
Tropical Storm Tracking
New forecast layout! Learn more

10-Day Weather Forecast

Advertisements
Track Severe Weather on mobile